createdAt,value
2024-02-05T00:00:14.076Z,5.90
2024-02-05T00:02:41.995Z,5.90
2024-02-05T00:05:12.055Z,5.90
2024-02-05T00:07:39.966Z,5.80
2024-02-05T00:10:09.000Z,5.80
2024-02-05T00:12:37.069Z,5.80
2024-02-05T00:15:05.616Z,5.80
2024-02-05T00:17:33.124Z,5.90
2024-02-05T00:20:00.575Z,5.90
2024-02-05T00:22:28.033Z,5.90
2024-02-05T00:24:55.244Z,5.80
2024-02-05T00:27:22.088Z,5.90
2024-02-05T00:29:49.298Z,5.80
2024-02-05T00:32:16.625Z,5.90
2024-02-05T00:34:43.780Z,5.90
2024-02-05T00:37:12.382Z,5.90
2024-02-05T00:39:39.229Z,5.90
2024-02-05T00:42:06.347Z,5.90
2024-02-05T00:44:33.109Z,5.90
2024-02-05T00:46:59.897Z,5.90
2024-02-05T00:49:27.161Z,5.90
2024-02-05T00:51:54.086Z,5.90
2024-02-05T00:54:20.993Z,5.90
2024-02-05T00:56:47.995Z,5.90
2024-02-05T00:59:14.826Z,5.90
2024-02-05T01:01:45.810Z,5.90
2024-02-05T01:04:13.056Z,6.00
2024-02-05T01:06:41.062Z,6.00
2024-02-05T01:09:11.345Z,6.00
2024-02-05T01:11:38.446Z,6.00
2024-02-05T01:14:05.431Z,6.00
2024-02-05T01:16:33.145Z,6.00
2024-02-05T01:19:00.123Z,5.90
2024-02-05T01:21:26.928Z,6.00
2024-02-05T01:23:53.928Z,6.00
2024-02-05T01:26:22.168Z,6.00
2024-02-05T01:28:49.508Z,6.00
2024-02-05T01:31:16.535Z,5.90
2024-02-05T01:33:43.854Z,6.00
2024-02-05T01:36:11.334Z,5.90
2024-02-05T01:38:38.414Z,6.00
2024-02-05T01:41:06.393Z,5.90
2024-02-05T01:43:33.196Z,5.90
2024-02-05T01:46:00.847Z,6.00
2024-02-05T01:48:32.835Z,6.00
2024-02-05T01:51:00.131Z,5.90
2024-02-05T01:53:28.402Z,5.90
2024-02-05T01:55:55.751Z,6.00
2024-02-05T01:58:23.362Z,6.00
2024-02-05T02:00:50.686Z,6.00
2024-02-05T02:03:18.373Z,6.00
2024-02-05T02:05:45.976Z,6.00
2024-02-05T02:08:16.122Z,6.00
2024-02-05T02:10:44.966Z,6.00
2024-02-05T02:13:11.761Z,6.10
2024-02-05T02:15:38.874Z,6.20
2024-02-05T02:18:10.881Z,6.20
2024-02-05T02:20:45.908Z,6.20
2024-02-05T02:23:31.371Z,6.30
2024-02-05T02:26:00.068Z,6.30
2024-02-05T02:28:27.408Z,6.30
2024-02-05T02:30:55.489Z,6.40
2024-02-05T02:33:24.968Z,6.50
2024-02-05T02:36:00.851Z,6.60
2024-02-05T02:38:34.290Z,6.80
2024-02-05T02:41:04.993Z,7.00
2024-02-05T02:43:48.815Z,7.10
2024-02-05T02:46:16.032Z,7.30
2024-02-05T02:48:43.201Z,7.50
2024-02-05T02:51:10.292Z,7.70
2024-02-05T02:53:37.078Z,7.80
2024-02-05T02:56:04.895Z,7.90
2024-02-05T02:58:31.815Z,8.00
2024-02-05T03:00:58.959Z,8.00
2024-02-05T03:03:25.922Z,8.10
2024-02-05T03:05:52.974Z,8.30
2024-02-05T03:08:20.114Z,8.30
2024-02-05T03:10:46.876Z,8.50
2024-02-05T03:13:16.701Z,8.50
2024-02-05T03:15:45.539Z,8.50
2024-02-05T03:18:12.457Z,8.60
2024-02-05T03:20:41.402Z,8.60
2024-02-05T03:23:12.822Z,8.60
2024-02-05T03:25:41.286Z,8.60
2024-02-05T03:28:11.930Z,8.70
2024-02-05T03:30:39.435Z,8.60
2024-02-05T03:33:07.001Z,8.70
2024-02-05T03:35:34.194Z,8.80
2024-02-05T03:38:01.380Z,8.80
2024-02-05T03:40:28.273Z,8.60
2024-02-05T03:42:56.143Z,8.80
2024-02-05T03:45:23.261Z,8.90
2024-02-05T03:47:50.051Z,9.00
2024-02-05T03:50:18.988Z,8.90
2024-02-05T03:52:47.103Z,9.00
2024-02-05T03:55:16.268Z,8.90
2024-02-05T03:57:45.327Z,9.00
2024-02-05T04:00:13.418Z,9.00
2024-02-05T04:02:41.135Z,8.90
2024-02-05T04:05:11.408Z,8.90
2024-02-05T04:07:38.560Z,9.00
2024-02-05T04:10:06.174Z,9.00
2024-02-05T04:12:33.272Z,9.00
2024-02-05T04:15:00.070Z,9.10
2024-02-05T04:17:27.092Z,9.10
2024-02-05T04:19:53.964Z,9.10
2024-02-05T04:22:21.106Z,9.10
2024-02-05T04:24:48.713Z,9.10
2024-02-05T04:27:16.249Z,9.10
2024-02-05T04:29:43.609Z,9.10
2024-02-05T04:32:11.431Z,9.20
2024-02-05T04:34:38.823Z,9.20
2024-02-05T04:37:06.152Z,9.20
2024-02-05T04:39:33.204Z,9.20
2024-02-05T04:42:00.005Z,9.20
2024-02-05T04:44:26.785Z,9.20
2024-02-05T04:46:53.806Z,9.20
2024-02-05T04:49:20.852Z,9.20
2024-02-05T04:51:51.284Z,9.30
2024-02-05T04:54:18.488Z,9.30
2024-02-05T04:56:45.843Z,9.20
2024-02-05T04:59:12.640Z,9.30
2024-02-05T05:01:39.856Z,9.30
2024-02-05T05:04:07.248Z,9.20
2024-02-05T05:06:34.341Z,9.30
2024-02-05T05:09:01.493Z,9.20
2024-02-05T05:11:28.750Z,9.30
2024-02-05T05:13:55.832Z,9.20
2024-02-05T05:16:23.375Z,9.20
2024-02-05T05:18:50.637Z,9.20
2024-02-05T05:21:17.683Z,9.20
2024-02-05T05:23:44.587Z,9.30
2024-02-05T05:26:11.877Z,9.20
2024-02-05T05:28:44.414Z,9.20
2024-02-05T05:31:13.968Z,9.30
2024-02-05T05:33:40.960Z,9.30
2024-02-05T05:36:08.480Z,9.30
2024-02-05T05:38:35.668Z,9.30
2024-02-05T05:41:02.536Z,9.20
2024-02-05T05:43:29.660Z,9.20
2024-02-05T05:45:57.157Z,9.20
2024-02-05T05:48:24.230Z,9.20
2024-02-05T05:50:52.384Z,9.20
2024-02-05T05:53:19.191Z,9.20
2024-02-05T05:55:50.048Z,9.20
2024-02-05T05:58:17.032Z,9.20
2024-02-05T06:00:44.181Z,9.40
2024-02-05T06:03:12.703Z,9.20
2024-02-05T06:05:39.597Z,9.20
2024-02-05T06:08:06.963Z,9.20
2024-02-05T06:10:34.836Z,9.20
2024-02-05T06:13:04.549Z,9.20
2024-02-05T06:15:34.124Z,9.20
2024-02-05T06:18:01.126Z,9.20
2024-02-05T06:20:29.252Z,9.20
2024-02-05T06:22:56.613Z,9.20
2024-02-05T06:25:26.210Z,9.20
2024-02-05T06:27:53.487Z,9.20
2024-02-05T06:30:20.328Z,9.20
2024-02-05T06:32:47.539Z,9.30
2024-02-05T06:35:15.125Z,9.30
2024-02-05T06:37:42.203Z,9.20
2024-02-05T06:40:10.487Z,9.20
2024-02-05T06:42:37.396Z,9.30
2024-02-05T06:45:05.515Z,9.40
2024-02-05T06:47:32.979Z,9.40
2024-02-05T06:50:00.114Z,9.40
2024-02-05T06:52:27.236Z,9.40
2024-02-05T06:54:54.537Z,9.50
2024-02-05T06:57:21.919Z,9.40
2024-02-05T06:59:48.968Z,9.40
2024-02-05T07:02:20.031Z,9.40
2024-02-05T07:04:48.434Z,9.40
2024-02-05T07:07:16.087Z,9.30
2024-02-05T07:09:43.088Z,9.30
2024-02-05T07:12:10.148Z,9.30
2024-02-05T07:14:37.199Z,9.40
2024-02-05T07:17:04.588Z,9.40
2024-02-05T07:19:31.828Z,9.40
2024-02-05T07:21:58.974Z,9.40
2024-02-05T07:24:25.785Z,9.30
2024-02-05T07:26:52.798Z,9.50
2024-02-05T07:29:19.582Z,9.50
2024-02-05T07:31:46.804Z,9.50
2024-02-05T07:34:13.894Z,9.60
2024-02-05T07:36:40.799Z,9.60
2024-02-05T07:39:09.693Z,9.60
2024-02-05T07:41:36.587Z,9.70
2024-02-05T07:44:03.776Z,9.70
2024-02-05T07:46:31.359Z,9.70
2024-02-05T07:48:58.907Z,9.70
2024-02-05T07:51:27.235Z,9.80
2024-02-05T07:53:54.072Z,9.80
2024-02-05T07:56:21.274Z,9.90
2024-02-05T07:58:48.351Z,9.90
2024-02-05T08:01:15.309Z,10.00
2024-02-05T08:03:43.181Z,9.90
2024-02-05T08:06:18.738Z,9.90
2024-02-05T08:08:46.858Z,10.00
2024-02-05T08:11:14.226Z,10.10
2024-02-05T08:13:41.465Z,10.10
2024-02-05T08:16:08.897Z,10.00
2024-02-05T08:18:36.214Z,9.90
2024-02-05T08:21:03.376Z,9.80
2024-02-05T08:23:30.581Z,10.00
2024-02-05T08:25:57.597Z,9.80
2024-02-05T08:28:24.915Z,9.80
2024-02-05T08:30:51.841Z,9.70
2024-02-05T08:33:19.057Z,9.70
2024-02-05T08:35:46.266Z,9.80
2024-02-05T08:38:13.222Z,9.70
2024-02-05T08:40:40.047Z,9.70
2024-02-05T08:43:06.857Z,9.80
2024-02-05T08:45:34.504Z,9.80
2024-02-05T08:48:02.115Z,9.80
2024-02-05T08:50:34.711Z,9.90
2024-02-05T08:53:02.006Z,9.80
2024-02-05T08:55:29.558Z,9.80
2024-02-05T08:57:56.740Z,9.80
2024-02-05T09:00:23.842Z,9.80
2024-02-05T09:02:51.895Z,9.80
2024-02-05T09:05:21.449Z,9.70
2024-02-05T09:07:52.351Z,9.70
2024-02-05T09:10:20.434Z,9.80
2024-02-05T09:12:47.506Z,9.80
2024-02-05T09:15:15.660Z,9.90
2024-02-05T09:17:42.709Z,9.80
2024-02-05T09:20:10.313Z,9.90
2024-02-05T09:22:37.631Z,9.90
2024-02-05T09:25:04.763Z,10.00
2024-02-05T09:27:31.836Z,10.00
2024-02-05T09:29:58.615Z,10.00
2024-02-05T09:32:25.465Z,10.00
2024-02-05T09:34:52.509Z,10.00
2024-02-05T09:37:19.500Z,10.00
2024-02-05T09:39:47.240Z,10.00
2024-02-05T09:42:14.367Z,10.00
2024-02-05T09:44:42.001Z,10.00
2024-02-05T09:47:11.248Z,10.00
2024-02-05T09:49:38.489Z,10.00
2024-02-05T09:52:09.139Z,9.90
2024-02-05T09:54:41.808Z,10.00
2024-02-05T09:57:12.382Z,10.00
2024-02-05T09:59:43.125Z,10.10
2024-02-05T10:02:15.771Z,10.10
2024-02-05T10:04:46.757Z,10.30
2024-02-05T10:07:19.702Z,10.20
2024-02-05T10:09:49.020Z,10.40
2024-02-05T10:12:17.598Z,10.40
2024-02-05T10:14:44.949Z,10.50
2024-02-05T10:17:12.525Z,10.60
2024-02-05T10:19:40.180Z,10.60
2024-02-05T10:22:07.762Z,10.60
2024-02-05T10:24:39.287Z,10.60
2024-02-05T10:27:06.393Z,10.60
2024-02-05T10:29:33.469Z,10.60
2024-02-05T10:32:00.444Z,10.70
2024-02-05T10:34:28.147Z,10.60
2024-02-05T10:37:05.998Z,10.60
2024-02-05T10:39:33.083Z,10.60
2024-02-05T10:41:59.853Z,10.70
2024-02-05T10:44:36.991Z,10.70
2024-02-05T10:47:09.054Z,10.70
2024-02-05T10:49:36.440Z,10.70
2024-02-05T10:52:09.871Z,10.60
2024-02-05T10:54:40.061Z,10.70
2024-02-05T10:57:10.114Z,10.70
2024-02-05T10:59:37.320Z,10.70
2024-02-05T11:02:13.832Z,10.70
2024-02-05T11:04:41.245Z,10.80
2024-02-05T11:07:11.142Z,10.70
2024-02-05T11:09:40.219Z,10.70
2024-02-05T11:12:09.246Z,10.60
2024-02-05T11:14:37.577Z,10.70
2024-02-05T11:17:06.201Z,10.70
2024-02-05T11:19:34.472Z,10.80
2024-02-05T11:22:05.415Z,10.70
2024-02-05T11:24:34.102Z,10.80
2024-02-05T11:27:04.634Z,10.80
2024-02-05T11:29:35.696Z,10.80
2024-02-05T11:32:06.258Z,10.80
2024-02-05T11:34:35.099Z,10.80
2024-02-05T11:37:15.999Z,10.80
2024-02-05T11:39:46.679Z,10.80
2024-02-05T11:42:17.960Z,10.70
2024-02-05T11:44:44.937Z,10.80
2024-02-05T11:47:14.604Z,10.70
2024-02-05T11:49:42.479Z,10.70
2024-02-05T11:52:09.932Z,10.70
2024-02-05T11:54:36.813Z,10.70
2024-02-05T11:57:03.796Z,10.70
2024-02-05T11:59:30.782Z,10.70
2024-02-05T12:01:58.815Z,10.60
2024-02-05T12:04:26.045Z,10.70
2024-02-05T12:06:54.231Z,10.70
2024-02-05T12:09:21.066Z,10.60
2024-02-05T12:11:49.788Z,10.70
2024-02-05T12:14:16.690Z,10.70
2024-02-05T12:16:44.150Z,10.70
2024-02-05T12:19:23.907Z,10.80
2024-02-05T12:21:51.631Z,10.80
2024-02-05T12:24:18.642Z,10.80
2024-02-05T12:26:45.737Z,10.90
2024-02-05T12:29:23.534Z,10.90
2024-02-05T12:31:53.340Z,10.90
2024-02-05T12:34:20.752Z,11.00
2024-02-05T12:36:48.804Z,10.90
2024-02-05T12:39:16.359Z,10.90
2024-02-05T12:41:44.492Z,10.90
2024-02-05T12:44:19.272Z,10.90
2024-02-05T12:46:50.375Z,11.00
2024-02-05T12:49:20.204Z,11.00
2024-02-05T12:51:48.461Z,10.90
2024-02-05T12:54:17.998Z,11.00
2024-02-05T12:56:44.849Z,11.10
2024-02-05T12:59:13.710Z,11.00
2024-02-05T13:01:40.840Z,11.00
2024-02-05T13:04:10.673Z,11.00
2024-02-05T13:06:37.658Z,11.00
2024-02-05T13:09:09.939Z,10.90
2024-02-05T13:11:37.521Z,10.90
2024-02-05T13:14:06.445Z,10.80
2024-02-05T13:16:33.949Z,10.90
2024-02-05T13:19:01.085Z,11.00
2024-02-05T13:21:28.605Z,10.90
2024-02-05T13:23:55.437Z,11.00
2024-02-05T13:26:22.564Z,10.90
2024-02-05T13:28:49.850Z,10.90
2024-02-05T13:31:17.850Z,11.00
2024-02-05T13:33:45.224Z,10.80
2024-02-05T13:36:13.362Z,10.80
2024-02-05T13:38:40.593Z,10.80
2024-02-05T13:41:07.549Z,10.70
2024-02-05T13:43:34.712Z,10.60
2024-02-05T13:46:05.027Z,10.60
2024-02-05T13:48:32.248Z,10.50
2024-02-05T13:50:59.403Z,10.60
2024-02-05T13:53:26.186Z,10.60
2024-02-05T13:55:53.695Z,10.70
2024-02-05T13:58:21.033Z,10.70
2024-02-05T14:00:49.534Z,10.60
2024-02-05T14:03:16.620Z,10.60
2024-02-05T14:05:43.455Z,10.50
2024-02-05T14:08:10.811Z,10.60
2024-02-05T14:10:37.814Z,10.50
2024-02-05T14:13:05.000Z,10.50
2024-02-05T14:15:32.297Z,10.60
2024-02-05T14:17:59.418Z,10.50
2024-02-05T14:20:26.609Z,10.50
2024-02-05T14:22:53.655Z,10.50
2024-02-05T14:25:23.064Z,10.60
2024-02-05T14:27:51.619Z,10.60
2024-02-05T14:30:18.746Z,10.60
2024-02-05T14:32:45.627Z,10.60
2024-02-05T14:35:13.169Z,10.60
2024-02-05T14:37:40.511Z,10.60
2024-02-05T14:40:07.853Z,10.60
2024-02-05T14:42:35.027Z,10.60
2024-02-05T14:45:02.109Z,10.50
2024-02-05T14:47:28.892Z,10.60
2024-02-05T14:49:56.207Z,10.60
2024-02-05T14:52:24.404Z,10.70
2024-02-05T14:54:51.502Z,10.70
2024-02-05T14:57:18.422Z,10.60
2024-02-05T14:59:45.405Z,10.60
2024-02-05T15:02:12.868Z,10.60
2024-02-05T15:04:40.209Z,10.60
2024-02-05T15:07:07.531Z,10.70
2024-02-05T15:09:35.052Z,10.70
2024-02-05T15:12:01.948Z,10.60
2024-02-05T15:14:28.876Z,10.60
2024-02-05T15:16:55.847Z,10.60
2024-02-05T15:19:23.036Z,10.50
2024-02-05T15:21:49.935Z,10.60
2024-02-05T15:24:17.160Z,10.60
2024-02-05T15:26:47.208Z,10.60
2024-02-05T15:29:15.300Z,10.60
2024-02-05T15:31:43.688Z,10.60
2024-02-05T15:34:15.553Z,10.60
2024-02-05T15:36:42.859Z,10.70
2024-02-05T15:39:13.061Z,10.60
2024-02-05T15:41:40.248Z,10.60
2024-02-05T15:44:07.768Z,10.60
2024-02-05T15:46:34.605Z,10.70
2024-02-05T15:49:01.908Z,10.50
2024-02-05T15:51:28.738Z,10.60
2024-02-05T15:53:56.525Z,10.50
2024-02-05T15:56:33.805Z,10.50
2024-02-05T15:59:06.594Z,10.60
2024-02-05T16:01:39.429Z,10.50
2024-02-05T16:04:08.518Z,10.50
2024-02-05T16:06:35.665Z,10.60
2024-02-05T16:09:02.444Z,10.70
2024-02-05T16:11:29.528Z,10.50
2024-02-05T16:13:56.309Z,10.50
2024-02-05T16:16:23.110Z,10.40
2024-02-05T16:21:17.098Z,10.40
2024-02-05T16:23:44.126Z,10.40
2024-02-05T16:26:11.121Z,10.30
2024-02-05T16:28:38.130Z,10.40
2024-02-05T16:31:07.717Z,10.30
2024-02-05T16:33:37.058Z,10.40
2024-02-05T16:36:04.694Z,10.30
2024-02-05T16:38:31.743Z,10.30
2024-02-05T16:40:58.535Z,10.30
2024-02-05T16:43:26.651Z,10.30
2024-02-05T16:45:56.014Z,10.30
2024-02-05T16:48:22.904Z,10.20
2024-02-05T16:50:50.116Z,10.30
2024-02-05T16:53:16.968Z,10.30
2024-02-05T16:55:45.264Z,10.30
2024-02-05T16:58:12.155Z,10.20
2024-02-05T17:00:41.409Z,10.20
2024-02-05T17:03:08.418Z,10.30
2024-02-05T17:05:37.099Z,10.20
2024-02-05T17:08:08.923Z,10.30
2024-02-05T17:10:36.659Z,10.30
2024-02-05T17:13:04.337Z,10.20
2024-02-05T17:15:31.296Z,10.30
2024-02-05T17:17:59.417Z,10.30
2024-02-05T17:20:28.001Z,10.20
2024-02-05T17:22:56.269Z,10.20
2024-02-05T17:25:23.461Z,10.20
2024-02-05T17:27:51.559Z,10.20
2024-02-05T17:30:18.573Z,10.30
2024-02-05T17:32:50.038Z,10.20
2024-02-05T17:35:22.649Z,10.20
2024-02-05T17:37:54.285Z,10.30
2024-02-05T17:40:31.989Z,10.30
2024-02-05T17:43:05.017Z,10.30
2024-02-05T17:45:32.243Z,10.30
2024-02-05T17:48:00.433Z,10.20
2024-02-05T17:50:29.168Z,10.20
2024-02-05T17:53:01.782Z,10.40
2024-02-05T17:55:31.761Z,10.60
2024-02-05T17:57:59.733Z,10.40
2024-02-05T18:00:28.267Z,10.50
2024-02-05T18:02:55.587Z,10.50
2024-02-05T18:05:23.790Z,10.50
2024-02-05T18:07:56.188Z,10.50
2024-02-05T18:10:25.097Z,10.50
2024-02-05T18:12:54.462Z,10.50
2024-02-05T18:15:21.609Z,10.60
2024-02-05T18:17:53.206Z,10.50
2024-02-05T18:20:32.325Z,10.50
2024-02-05T18:23:03.185Z,10.60
2024-02-05T18:25:52.011Z,10.60
2024-02-05T18:28:19.711Z,10.60
2024-02-05T18:30:47.315Z,10.50
2024-02-05T18:33:14.266Z,10.60
2024-02-05T18:35:43.248Z,10.50
2024-02-05T18:38:10.173Z,10.60
2024-02-05T18:40:37.239Z,10.50
2024-02-05T18:43:05.576Z,10.50
2024-02-05T18:45:32.700Z,10.50
2024-02-05T18:47:59.724Z,10.50
2024-02-05T18:50:27.782Z,10.40
2024-02-05T18:52:54.625Z,10.30
2024-02-05T18:55:21.764Z,10.30
2024-02-05T18:57:50.892Z,10.40
2024-02-05T19:00:21.823Z,10.40
2024-02-05T19:02:50.621Z,10.40
2024-02-05T19:05:19.040Z,10.30
2024-02-05T19:07:48.769Z,10.30
2024-02-05T19:10:17.141Z,10.30
2024-02-05T19:12:50.704Z,10.20
2024-02-05T19:15:23.358Z,10.30
2024-02-05T19:17:50.970Z,10.20
2024-02-05T19:20:18.987Z,10.20
2024-02-05T19:22:47.974Z,10.20
2024-02-05T19:25:17.309Z,10.20
2024-02-05T19:27:48.350Z,10.30
2024-02-05T19:30:20.619Z,10.30
2024-02-05T19:32:54.725Z,10.20
2024-02-05T19:35:22.174Z,10.10
2024-02-05T19:37:49.791Z,10.20
2024-02-05T19:40:17.802Z,10.30
2024-02-05T19:42:46.895Z,10.30
2024-02-05T19:45:13.861Z,10.10
2024-02-05T19:47:41.757Z,10.20
2024-02-05T19:50:09.271Z,10.10
2024-02-05T19:52:36.103Z,10.20
2024-02-05T19:55:11.086Z,10.10
2024-02-05T19:57:43.809Z,10.20
2024-02-05T20:00:13.334Z,10.20
2024-02-05T20:02:40.571Z,10.10
2024-02-05T20:05:07.821Z,10.10
2024-02-05T20:07:35.015Z,10.10
2024-02-05T20:10:02.052Z,10.00
2024-02-05T20:12:29.127Z,10.00
2024-02-05T20:14:55.901Z,9.90
2024-02-05T20:17:23.685Z,9.90
2024-02-05T20:19:50.616Z,9.90
2024-02-05T20:22:18.658Z,9.90
2024-02-05T20:24:46.785Z,9.90
2024-02-05T20:27:13.811Z,10.00
2024-02-05T20:29:40.843Z,9.90
2024-02-05T20:32:07.728Z,9.90
2024-02-05T20:34:34.894Z,9.90
2024-02-05T20:37:01.759Z,10.00
2024-02-05T20:39:29.621Z,10.10
2024-02-05T20:41:57.796Z,10.10
2024-02-05T20:44:24.740Z,10.10
2024-02-05T20:46:52.802Z,10.20
2024-02-05T20:49:19.768Z,10.10
2024-02-05T20:51:47.777Z,10.20
2024-02-05T20:54:14.679Z,10.20
2024-02-05T20:56:41.535Z,10.40
2024-02-05T20:59:08.637Z,10.30
2024-02-05T21:01:35.957Z,10.30
2024-02-05T21:04:03.130Z,10.30
2024-02-05T21:06:30.006Z,10.40
2024-02-05T21:08:57.071Z,10.40
2024-02-05T21:11:25.706Z,10.40
2024-02-05T21:13:52.907Z,10.30
2024-02-05T21:16:21.676Z,10.30
2024-02-05T21:18:50.706Z,10.30
2024-02-05T21:21:18.751Z,10.30
2024-02-05T21:23:45.773Z,10.20
2024-02-05T21:26:12.633Z,10.30
2024-02-05T21:28:39.796Z,10.30
2024-02-05T21:31:06.857Z,10.30
2024-02-05T21:33:33.796Z,10.30
2024-02-05T21:36:00.677Z,10.30
2024-02-05T21:38:27.748Z,10.30
2024-02-05T21:40:55.867Z,10.20
2024-02-05T21:43:22.753Z,10.20
2024-02-05T21:45:49.821Z,10.20
2024-02-05T21:48:16.756Z,10.20
2024-02-05T21:50:43.899Z,10.30
2024-02-05T21:53:11.171Z,10.30
2024-02-05T21:55:38.429Z,10.10
2024-02-05T21:58:05.516Z,10.20
2024-02-05T22:00:32.374Z,10.10
2024-02-05T22:02:59.365Z,10.10
2024-02-05T22:05:28.322Z,10.10
2024-02-05T22:07:55.327Z,10.00
2024-02-05T22:10:22.477Z,10.10
2024-02-05T22:12:49.620Z,10.20
2024-02-05T22:15:16.423Z,10.10
2024-02-05T22:17:43.569Z,10.00
2024-02-05T22:20:10.924Z,10.10
2024-02-05T22:22:37.903Z,10.10
2024-02-05T22:25:05.304Z,10.10
2024-02-05T22:27:32.415Z,10.10
2024-02-05T22:30:01.446Z,10.10
2024-02-05T22:32:32.354Z,10.10
2024-02-05T22:34:59.656Z,10.00
2024-02-05T22:37:26.923Z,10.00
2024-02-05T22:39:54.170Z,10.00
2024-02-05T22:42:22.205Z,10.00
2024-02-05T22:44:49.726Z,10.10
2024-02-05T22:47:16.857Z,10.10
2024-02-05T22:49:45.243Z,10.10
2024-02-05T22:52:13.651Z,10.10
2024-02-05T22:54:41.898Z,10.10
2024-02-05T22:57:08.991Z,10.10
2024-02-05T22:59:35.888Z,10.00
2024-02-05T23:02:02.839Z,10.00
2024-02-05T23:04:30.282Z,10.10
2024-02-05T23:06:57.485Z,10.10
2024-02-05T23:09:27.720Z,10.00
2024-02-05T23:11:55.684Z,10.00
2024-02-05T23:14:22.625Z,10.00
2024-02-05T23:16:50.515Z,10.00
2024-02-05T23:19:20.496Z,9.90
2024-02-05T23:21:47.620Z,10.00
2024-02-05T23:24:15.081Z,10.10
2024-02-05T23:26:42.951Z,10.00
2024-02-05T23:29:10.184Z,9.90
2024-02-05T23:31:37.585Z,10.00
2024-02-05T23:34:05.041Z,10.00
2024-02-05T23:36:32.357Z,9.90
2024-02-05T23:38:59.455Z,9.90
2024-02-05T23:41:26.328Z,9.90
2024-02-05T23:43:53.362Z,9.90
2024-02-05T23:46:20.494Z,9.80
2024-02-05T23:48:47.372Z,9.90
2024-02-05T23:51:14.665Z,9.90
2024-02-05T23:53:41.848Z,9.90
2024-02-05T23:56:11.293Z,9.80
2024-02-05T23:58:39.888Z,9.90
